Time;durP1;ratioP1;P1;durP2;ratioP2;P2;SDS_P1;SDS_P2;PMS_P1;PMS_P2;Temp;Humidity;BMP_temperature;BMP_pressure;BME280_temperature;BME280_humidity;BME280_pressure;Samples;Min_cycle;Max_cycle;Signal;HPM_P1;HPM_P2
2020/12/31 00:00:45;;;;;;;;;;;5.80;95.10;;;;;;10436010;28;19920;-69
2020/12/31 00:05:46;;;;;;;;;;;5.80;95.00;;;;;;10426420;28;19964;-70
2020/12/31 00:10:47;;;;;;;;;;;5.70;95.20;;;;;;10433246;28;20039;-69
2020/12/31 00:15:49;;;;;;;;;;;5.80;95.00;;;;;;10455366;28;20021;-69
2020/12/31 00:20:50;;;;;;;;;;;5.90;94.90;;;;;;10459309;28;20015;-69
2020/12/31 00:25:52;;;;;;;;;;;5.90;95.30;;;;;;10458807;28;19963;-69
2020/12/31 00:30:53;;;;;;;;;;;5.90;94.90;;;;;;10458956;28;19963;-69
2020/12/31 00:35:55;;;;;;;;;;;5.70;94.60;;;;;;10458384;28;20263;-69
2020/12/31 00:40:58;;;;;;;;;;;5.70;94.90;;;;;;10458448;28;19921;-69
2020/12/31 00:46:00;;;;;;;;;;;5.40;94.60;;;;;;10458701;28;19929;-69
2020/12/31 00:51:01;;;;;;;;;;;5.20;94.90;;;;;;10458116;28;19921;-69
2020/12/31 00:56:02;;;;;;;;;;;5.20;95.00;;;;;;10457978;28;20011;-69
2020/12/31 01:01:04;;;;;;;;;;;5.10;94.20;;;;;;10457754;28;20014;-69
2020/12/31 01:06:05;;;;;;;;;;;4.90;95.10;;;;;;10457526;28;19924;-69
2020/12/31 01:11:06;;;;;;;;;;;4.90;95.30;;;;;;10458444;28;19979;-69
2020/12/31 01:16:11;;;;;;;;;;;4.90;95.30;;;;;;10433162;28;19924;-69
2020/12/31 01:21:12;;;;;;;;;;;4.80;95.20;;;;;;10457543;28;20281;-69
2020/12/31 01:26:13;;;;;;;;;;;4.70;95.20;;;;;;10452215;28;20352;-69
2020/12/31 01:31:15;;;;;;;;;;;4.60;96.00;;;;;;10451006;28;19928;-69
2020/12/31 01:36:16;;;;;;;;;;;4.60;96.00;;;;;;10450662;28;20024;-69
2020/12/31 01:41:21;;;;;;;;;;;4.50;96.40;;;;;;10448901;28;19928;-69
2020/12/31 01:46:23;;;;;;;;;;;4.50;97.00;;;;;;10427633;28;19963;-69
2020/12/31 01:51:24;;;;;;;;;;;4.50;96.70;;;;;;10449669;28;19952;-69
2020/12/31 01:56:30;;;;;;;;;;;4.40;97.10;;;;;;10450297;28;20015;-69
2020/12/31 02:01:31;;;;;;;;;;;4.30;97.20;;;;;;10450233;28;20011;-69
2020/12/31 02:06:33;;;;;;;;;;;4.30;97.10;;;;;;10449185;28;20319;-69
2020/12/31 02:11:34;;;;;;;;;;;4.30;97.00;;;;;;10448834;28;20277;-69
2020/12/31 02:16:39;;;;;;;;;;;4.30;96.60;;;;;;10449308;28;19925;-69
2020/12/31 02:21:44;;;;;;;;;;;4.20;97.20;;;;;;10449192;28;20359;-69
2020/12/31 02:26:46;;;;;;;;;;;4.00;96.40;;;;;;10449534;28;19960;-69
2020/12/31 02:31:47;;;;;;;;;;;4.00;97.40;;;;;;10448941;28;20024;-69
2020/12/31 02:36:49;;;;;;;;;;;4.00;97.60;;;;;;10447244;28;19963;-69
2020/12/31 02:41:50;;;;;;;;;;;4.00;96.90;;;;;;10448038;28;20381;-70
2020/12/31 02:46:51;;;;;;;;;;;3.90;97.20;;;;;;10448505;28;19920;-69
2020/12/31 02:51:53;;;;;;;;;;;3.90;97.60;;;;;;10448144;28;19979;-69
2020/12/31 02:56:54;;;;;;;;;;;3.90;97.20;;;;;;10447075;28;19967;-69
2020/12/31 03:01:55;;;;;;;;;;;3.90;97.50;;;;;;10449793;28;19960;-69
2020/12/31 03:06:57;;;;;;;;;;;4.00;97.90;;;;;;10454002;28;19958;-69
2020/12/31 03:11:58;;;;;;;;;;;4.00;97.80;;;;;;10454713;28;20031;-69
2020/12/31 03:16:59;;;;;;;;;;;4.10;97.90;;;;;;10455435;28;20197;-69
2020/12/31 03:22:00;;;;;;;;;;;4.00;97.90;;;;;;10455163;28;19927;-70
2020/12/31 03:27:02;;;;;;;;;;;4.00;97.90;;;;;;10454601;28;20475;-69
2020/12/31 03:32:03;;;;;;;;;;;4.00;98.50;;;;;;10455025;28;19964;-69
2020/12/31 03:37:07;;;;;;;;;;;4.00;98.20;;;;;;10452826;28;20353;-69
2020/12/31 03:42:09;;;;;;;;;;;4.00;98.70;;;;;;10453767;28;19967;-69
2020/12/31 03:47:10;;;;;;;;;;;4.00;98.30;;;;;;10452374;28;19950;-69
2020/12/31 03:52:12;;;;;;;;;;;3.90;97.90;;;;;;10453748;28;19931;-69
2020/12/31 03:57:13;;;;;;;;;;;3.80;98.30;;;;;;10453672;28;19938;-69
2020/12/31 04:02:14;;;;;;;;;;;3.90;98.60;;;;;;10451700;28;20380;-69
2020/12/31 04:07:16;;;;;;;;;;;3.80;98.70;;;;;;10448404;28;20036;-69
2020/12/31 04:12:17;;;;;;;;;;;3.90;98.80;;;;;;10446598;28;19956;-69
2020/12/31 04:17:19;;;;;;;;;;;4.00;98.50;;;;;;10445302;28;20039;-69
2020/12/31 04:22:20;;;;;;;;;;;3.90;98.50;;;;;;10446283;28;19951;-69
2020/12/31 04:27:21;;;;;;;;;;;3.90;98.70;;;;;;10446060;28;20012;-68
2020/12/31 04:32:23;;;;;;;;;;;3.90;99.00;;;;;;10446211;28;20023;-69
2020/12/31 04:37:24;;;;;;;;;;;4.10;98.10;;;;;;10446359;28;20011;-69
2020/12/31 04:42:35;;;;;;;;;;;4.20;98.20;;;;;;10445002;28;20438;-69
2020/12/31 04:47:47;;;;;;;;;;;4.30;97.60;;;;;;10445037;28;19924;-69
2020/12/31 04:52:48;;;;;;;;;;;4.30;97.70;;;;;;10445881;28;20345;-69
2020/12/31 04:57:50;;;;;;;;;;;4.50;97.60;;;;;;10443962;28;19921;-70
2020/12/31 05:02:54;;;;;;;;;;;4.50;97.10;;;;;;10452691;28;20396;-68
2020/12/31 05:07:56;;;;;;;;;;;4.60;97.20;;;;;;10453467;28;19974;-69
2020/12/31 05:12:58;;;;;;;;;;;4.70;97.60;;;;;;10453070;28;19920;-70
2020/12/31 05:18:26;;;;;;;;;;;4.60;97.30;;;;;;10450700;28;20019;-68
2020/12/31 05:23:28;;;;;;;;;;;4.70;97.50;;;;;;10422985;28;20409;-68
2020/12/31 05:28:30;;;;;;;;;;;4.70;96.90;;;;;;10451912;28;19925;-70
2020/12/31 05:33:33;;;;;;;;;;;4.80;97.50;;;;;;10452708;28;19967;-69
2020/12/31 05:38:34;;;;;;;;;;;4.70;97.50;;;;;;10451144;28;19974;-70
2020/12/31 05:43:36;;;;;;;;;;;4.60;98.30;;;;;;10450351;28;20023;-69
2020/12/31 05:48:38;;;;;;;;;;;4.40;98.70;;;;;;10450967;28;20350;-69
2020/12/31 05:53:42;;;;;;;;;;;4.50;98.60;;;;;;10451157;28;20019;-69
2020/12/31 05:58:45;;;;;;;;;;;4.50;98.50;;;;;;10451042;28;19991;-69
2020/12/31 06:03:50;;;;;;;;;;;4.40;99.00;;;;;;10450663;28;20308;-69
2020/12/31 06:09:02;;;;;;;;;;;4.60;98.90;;;;;;10450611;28;20437;-69
2020/12/31 06:14:05;;;;;;;;;;;4.50;99.30;;;;;;10450017;28;19921;-70
2020/12/31 06:19:25;;;;;;;;;;;4.40;99.40;;;;;;10450518;28;19924;-70
2020/12/31 06:24:38;;;;;;;;;;;4.40;99.50;;;;;;10449894;28;20003;-68
2020/12/31 06:29:40;;;;;;;;;;;4.40;99.80;;;;;;10446289;28;20266;-70
2020/12/31 06:34:42;;;;;;;;;;;4.40;99.90;;;;;;10444176;28;20007;-70
2020/12/31 06:39:43;;;;;;;;;;;4.50;99.90;;;;;;10429453;28;20007;-69
2020/12/31 06:44:44;;;;;;;;;;;4.50;98.80;;;;;;10445583;28;20438;-70
2020/12/31 06:49:49;;;;;;;;;;;4.60;99.60;;;;;;10447200;28;20424;-70
2020/12/31 06:54:54;;;;;;;;;;;4.60;99.50;;;;;;10445999;28;19971;-71
2020/12/31 06:59:57;;;;;;;;;;;4.50;99.10;;;;;;10446821;28;19959;-70
2020/12/31 07:05:17;;;;;;;;;;;4.50;99.00;;;;;;10446397;28;20349;-69
2020/12/31 07:10:19;;;;;;;;;;;4.30;99.20;;;;;;10427426;28;20015;-70
2020/12/31 07:15:20;;;;;;;;;;;4.20;99.80;;;;;;10446337;28;19920;-69
2020/12/31 07:20:24;;;;;;;;;;;4.20;99.90;;;;;;10445690;28;19967;-70
2020/12/31 07:25:25;;;;;;;;;;;4.10;99.90;;;;;;10445036;28;20019;-70
2020/12/31 07:30:28;;;;;;;;;;;4.10;99.90;;;;;;10446574;28;19968;-70
2020/12/31 07:35:29;;;;;;;;;;;4.10;99.90;;;;;;10429155;28;20344;-68
2020/12/31 07:40:33;;;;;;;;;;;4.20;99.90;;;;;;10431536;28;20369;-69
2020/12/31 07:45:35;;;;;;;;;;;4.10;99.90;;;;;;10444714;28;20398;-69
2020/12/31 07:50:37;;;;;;;;;;;4.00;99.90;;;;;;10445065;28;19921;-69
2020/12/31 07:55:46;;;;;;;;;;;3.90;99.90;;;;;;10443967;28;20019;-70
2020/12/31 08:01:00;;;;;;;;;;;3.90;99.90;;;;;;10446458;28;19927;-69
2020/12/31 08:06:02;;;;;;;;;;;3.90;99.90;;;;;;10445570;28;19964;-69
2020/12/31 08:11:07;;;;;;;;;;;3.90;99.90;;;;;;10446538;28;19978;-70
2020/12/31 08:16:13;;;;;;;;;;;3.80;99.90;;;;;;10446223;28;19978;-69
2020/12/31 08:21:15;;;;;;;;;;;3.80;99.90;;;;;;10444821;28;19971;-70
2020/12/31 08:26:20;;;;;;;;;;;3.80;99.90;;;;;;10446571;28;19952;-68
2020/12/31 08:31:23;;;;;;;;;;;3.80;99.90;;;;;;10446033;28;19998;-68
2020/12/31 08:36:25;;;;;;;;;;;3.90;99.90;;;;;;10453211;28;20033;-69
2020/12/31 08:41:26;;;;;;;;;;;3.90;99.90;;;;;;10454301;28;19964;-68
2020/12/31 08:46:27;;;;;;;;;;;3.90;99.90;;;;;;10454000;28;19928;-69
2020/12/31 08:51:29;;;;;;;;;;;4.00;99.90;;;;;;10453954;28;19962;-68
2020/12/31 08:56:31;;;;;;;;;;;4.00;99.90;;;;;;10453354;28;20380;-68
2020/12/31 09:01:32;;;;;;;;;;;4.00;99.90;;;;;;10453435;28;19956;-69
2020/12/31 09:06:35;;;;;;;;;;;4.10;99.90;;;;;;10452939;28;20428;-69
2020/12/31 09:11:36;;;;;;;;;;;4.10;99.90;;;;;;10452838;28;19964;-69
2020/12/31 09:16:38;;;;;;;;;;;4.30;99.90;;;;;;10452751;28;19975;-68
2020/12/31 09:21:39;;;;;;;;;;;4.30;99.90;;;;;;10452021;28;20031;-69
2020/12/31 09:26:50;;;;;;;;;;;4.20;99.90;;;;;;10451226;28;20468;-68
2020/12/31 09:31:51;;;;;;;;;;;4.30;99.90;;;;;;10452562;28;20289;-70
2020/12/31 09:37:00;;;;;;;;;;;4.40;99.90;;;;;;10440420;28;20297;-70
2020/12/31 09:42:01;;;;;;;;;;;4.40;99.90;;;;;;10448525;28;20022;-70
2020/12/31 09:47:03;;;;;;;;;;;4.50;99.90;;;;;;10449210;28;20011;-70
2020/12/31 09:52:04;;;;;;;;;;;4.50;99.90;;;;;;10449864;28;20019;-71
2020/12/31 09:57:06;;;;;;;;;;;4.50;99.90;;;;;;10431286;28;19923;-70
2020/12/31 10:02:07;;;;;;;;;;;4.50;99.90;;;;;;10444736;28;19956;-70
2020/12/31 10:07:08;;;;;;;;;;;4.50;99.90;;;;;;10437569;28;20042;-70
2020/12/31 10:12:13;;;;;;;;;;;4.50;99.90;;;;;;10446391;28;19921;-69
2020/12/31 10:17:15;;;;;;;;;;;4.50;99.90;;;;;;10444297;28;20023;-70
2020/12/31 10:22:16;;;;;;;;;;;4.50;99.90;;;;;;10428503;28;19968;-70
2020/12/31 10:27:18;;;;;;;;;;;4.80;99.90;;;;;;10436998;28;20115;-72
2020/12/31 10:32:19;;;;;;;;;;;4.80;99.90;;;;;;10435652;28;19975;-72
2020/12/31 10:37:21;;;;;;;;;;;4.80;99.60;;;;;;10426865;28;19921;-71
2020/12/31 10:42:22;;;;;;;;;;;4.90;99.90;;;;;;10427990;28;19974;-71
2020/12/31 10:47:23;;;;;;;;;;;5.00;99.70;;;;;;10447211;28;19924;-71
2020/12/31 10:52:25;;;;;;;;;;;5.10;99.60;;;;;;10447186;28;19971;-71
2020/12/31 10:57:26;;;;;;;;;;;5.20;99.50;;;;;;10445430;28;19972;-71
2020/12/31 11:02:27;;;;;;;;;;;5.40;99.80;;;;;;10447299;28;19964;-71
2020/12/31 11:07:29;;;;;;;;;;;5.40;98.80;;;;;;10439587;28;19928;-71
2020/12/31 11:12:30;;;;;;;;;;;5.40;98.20;;;;;;10445176;28;19983;-71
2020/12/31 11:17:31;;;;;;;;;;;5.20;99.60;;;;;;10446159;28;19920;-71
2020/12/31 11:22:33;;;;;;;;;;;5.20;98.90;;;;;;10445243;28;19929;-71
2020/12/31 11:27:34;;;;;;;;;;;5.10;98.90;;;;;;10443817;28;19944;-71
2020/12/31 11:32:39;;;;;;;;;;;5.10;99.40;;;;;;10444571;28;19924;-71
2020/12/31 11:37:41;;;;;;;;;;;5.10;99.20;;;;;;10441625;28;19926;-71
2020/12/31 11:42:43;;;;;;;;;;;5.40;99.40;;;;;;10409871;28;19925;-71
2020/12/31 11:47:44;;;;;;;;;;;5.40;99.10;;;;;;10444656;28;19967;-71
2020/12/31 11:52:46;;;;;;;;;;;5.60;97.10;;;;;;10444292;28;19924;-71
2020/12/31 11:57:47;;;;;;;;;;;5.70;98.40;;;;;;10443470;28;19928;-71
2020/12/31 12:02:48;;;;;;;;;;;5.60;98.20;;;;;;10445036;28;19924;-73
2020/12/31 12:07:50;;;;;;;;;;;5.30;98.40;;;;;;10443514;28;20015;-71
2020/12/31 12:12:51;;;;;;;;;;;5.30;99.00;;;;;;10444318;28;19921;-71
2020/12/31 12:17:52;;;;;;;;;;;5.50;98.90;;;;;;10444019;28;19951;-71
2020/12/31 12:22:54;;;;;;;;;;;5.60;98.40;;;;;;10427086;28;20348;-71
2020/12/31 12:27:55;;;;;;;;;;;5.60;98.50;;;;;;10435326;28;20015;-71
2020/12/31 12:32:57;;;;;;;;;;;5.70;98.70;;;;;;10434524;28;19925;-72
2020/12/31 12:37:58;;;;;;;;;;;5.70;98.40;;;;;;10442414;28;19921;-71
2020/12/31 12:43:00;;;;;;;;;;;5.80;98.40;;;;;;10436891;28;19925;-71
2020/12/31 12:48:02;;;;;;;;;;;5.80;98.10;;;;;;10442121;28;19951;-71
2020/12/31 12:53:03;;;;;;;;;;;5.70;98.20;;;;;;10435339;28;19921;-71
2020/12/31 12:58:04;;;;;;;;;;;5.70;98.30;;;;;;10439861;28;19925;-71
2020/12/31 13:03:07;;;;;;;;;;;5.70;98.50;;;;;;10439248;28;20476;-71
2020/12/31 13:08:09;;;;;;;;;;;5.70;97.90;;;;;;10439603;28;19982;-71
2020/12/31 13:19:07;;;;;;;;;;;7.90;99.90;;;;;;10615052;27;20286;-69
2020/12/31 13:24:09;;;;;;;;;;;7.60;99.90;;;;;;10546772;27;19971;-70
2020/12/31 13:29:10;;;;;;;;;;;6.90;99.90;;;;;;10520302;28;20039;-70
2020/12/31 13:34:12;;;;;;;;;;;6.40;99.90;;;;;;10521035;28;19924;-70
2020/12/31 13:39:13;;;;;;;;;;;6.40;99.90;;;;;;10520056;28;19928;-70
2020/12/31 13:44:14;;;;;;;;;;;6.10;99.90;;;;;;10505011;28;19964;-71
2020/12/31 13:49:16;;;;;;;;;;;6.00;99.90;;;;;;10509946;28;19960;-71
2020/12/31 13:54:18;;;;;;;;;;;5.70;99.90;;;;;;10517639;28;20019;-69
2020/12/31 13:59:19;;;;;;;;;;;5.70;99.90;;;;;;10517301;28;20054;-71
2020/12/31 14:04:23;;;;;;;;;;;5.70;99.90;;;;;;10499446;28;19928;-70
2020/12/31 14:09:25;;;;;;;;;;;5.70;99.90;;;;;;10509114;28;19986;-70
2020/12/31 14:14:26;;;;;;;;;;;5.40;99.90;;;;;;10519643;28;20074;-70
2020/12/31 14:19:30;;;;;;;;;;;5.30;99.90;;;;;;10519509;28;20292;-69
2020/12/31 14:24:32;;;;;;;;;;;5.40;99.90;;;;;;10555876;28;19928;-70
2020/12/31 14:29:34;;;;;;;;;;;5.50;99.90;;;;;;10471081;28;20018;-69
2020/12/31 14:34:36;;;;;;;;;;;5.40;99.90;;;;;;10448932;28;19932;-69
2020/12/31 14:39:37;;;;;;;;;;;5.40;99.90;;;;;;10450110;28;19976;-69
2020/12/31 14:44:39;;;;;;;;;;;5.30;99.90;;;;;;10445121;28;19971;-70
2020/12/31 14:49:40;;;;;;;;;;;5.20;99.90;;;;;;10449751;28;19925;-69
2020/12/31 14:54:41;;;;;;;;;;;5.00;99.90;;;;;;10447610;28;20394;-69
2020/12/31 14:59:43;;;;;;;;;;;4.80;99.90;;;;;;10428778;28;19935;-69
2020/12/31 15:04:44;;;;;;;;;;;4.60;99.90;;;;;;10427111;28;20364;-70
2020/12/31 15:09:45;;;;;;;;;;;4.50;99.90;;;;;;10448970;28;19925;-69
2020/12/31 15:14:47;;;;;;;;;;;4.70;99.90;;;;;;10448211;28;20015;-69
2020/12/31 15:19:48;;;;;;;;;;;4.70;99.90;;;;;;10448304;28;19932;-69
2020/12/31 15:24:50;;;;;;;;;;;4.60;99.90;;;;;;10448150;28;19956;-69
2020/12/31 15:29:51;;;;;;;;;;;4.70;99.90;;;;;;10453414;28;20198;-69
2020/12/31 15:34:56;;;;;;;;;;;4.70;99.90;;;;;;10453604;28;19970;-69
2020/12/31 15:39:58;;;;;;;;;;;4.80;99.90;;;;;;10464325;28;20010;-69
2020/12/31 15:44:59;;;;;;;;;;;4.80;99.90;;;;;;10456284;28;20020;-69
2020/12/31 15:50:02;;;;;;;;;;;4.70;99.90;;;;;;10436707;28;19935;-69
2020/12/31 15:55:03;;;;;;;;;;;4.50;99.90;;;;;;10439447;28;20019;-69
2020/12/31 16:00:05;;;;;;;;;;;4.50;99.90;;;;;;10471838;28;19932;-67
2020/12/31 16:05:07;;;;;;;;;;;4.50;99.90;;;;;;10468184;28;19925;-67
2020/12/31 16:10:10;;;;;;;;;;;4.40;99.90;;;;;;10465321;28;19969;-67
2020/12/31 16:15:12;;;;;;;;;;;4.30;99.90;;;;;;10466364;28;20227;-67
2020/12/31 16:20:14;;;;;;;;;;;4.30;99.90;;;;;;10443185;28;20339;-67
2020/12/31 16:25:15;;;;;;;;;;;4.30;99.90;;;;;;10442029;28;20680;-67
2020/12/31 16:30:18;;;;;;;;;;;4.30;99.90;;;;;;10440467;28;20397;-67
2020/12/31 16:35:20;;;;;;;;;;;4.40;99.90;;;;;;10442380;28;19932;-67
2020/12/31 16:40:21;;;;;;;;;;;4.40;99.90;;;;;;10443164;28;19987;-67
2020/12/31 16:45:23;;;;;;;;;;;4.30;99.90;;;;;;10433144;28;20345;-68
2020/12/31 16:50:24;;;;;;;;;;;4.30;99.90;;;;;;10441528;28;19932;-70
2020/12/31 16:55:26;;;;;;;;;;;4.50;99.90;;;;;;10443067;28;19928;-69
2020/12/31 17:00:27;;;;;;;;;;;4.50;99.90;;;;;;10441544;28;20418;-69
2020/12/31 17:05:29;;;;;;;;;;;4.40;99.90;;;;;;10401256;28;19932;-69
2020/12/31 17:10:30;;;;;;;;;;;4.50;99.90;;;;;;10453037;28;19964;-69
2020/12/31 17:15:32;;;;;;;;;;;4.50;99.90;;;;;;10442647;28;20024;-70
2020/12/31 17:20:33;;;;;;;;;;;4.60;99.90;;;;;;10455984;28;20015;-69
2020/12/31 17:25:34;;;;;;;;;;;4.60;99.90;;;;;;10443609;28;20107;-69
2020/12/31 17:30:36;;;;;;;;;;;4.60;99.90;;;;;;10444125;28;19979;-69
2020/12/31 17:35:38;;;;;;;;;;;4.60;99.90;;;;;;10442637;28;20284;-69
2020/12/31 17:40:40;;;;;;;;;;;4.80;99.90;;;;;;10443603;28;19948;-69
2020/12/31 17:45:41;;;;;;;;;;;4.90;99.90;;;;;;10444549;28;19972;-69
2020/12/31 17:50:42;;;;;;;;;;;4.80;99.90;;;;;;10445465;28;20004;-69
2020/12/31 17:55:44;;;;;;;;;;;4.90;99.90;;;;;;10445469;28;19994;-69
2020/12/31 18:00:46;;;;;;;;;;;4.90;99.90;;;;;;10442855;28;20016;-69
2020/12/31 18:05:52;;;;;;;;;;;4.80;99.90;;;;;;10449407;28;20023;-69
2020/12/31 18:10:55;;;;;;;;;;;4.70;99.90;;;;;;10449981;28;19925;-69
2020/12/31 18:15:57;;;;;;;;;;;4.70;99.90;;;;;;10452678;28;20460;-69
2020/12/31 18:20:58;;;;;;;;;;;4.70;99.90;;;;;;10451708;28;20292;-69
2020/12/31 18:25:59;;;;;;;;;;;4.80;99.90;;;;;;10450444;28;20424;-69
2020/12/31 18:31:01;;;;;;;;;;;4.70;99.90;;;;;;10449174;28;19972;-69
2020/12/31 18:36:02;;;;;;;;;;;4.60;99.90;;;;;;10450282;28;19975;-69
2020/12/31 18:41:03;;;;;;;;;;;4.60;99.90;;;;;;10452257;28;19983;-69
2020/12/31 18:46:05;;;;;;;;;;;4.50;99.90;;;;;;10451818;28;20396;-69
2020/12/31 18:51:06;;;;;;;;;;;4.50;99.90;;;;;;10452066;28;20019;-69
2020/12/31 18:56:08;;;;;;;;;;;4.50;99.90;;;;;;10451895;28;19972;-69
2020/12/31 19:01:09;;;;;;;;;;;4.50;99.90;;;;;;10451786;28;19932;-69
2020/12/31 19:06:11;;;;;;;;;;;4.50;99.90;;;;;;10450174;28;19925;-69
2020/12/31 19:11:13;;;;;;;;;;;4.60;99.90;;;;;;10450832;28;19928;-69
2020/12/31 19:16:15;;;;;;;;;;;4.70;99.90;;;;;;10450888;28;20031;-69
2020/12/31 19:21:16;;;;;;;;;;;4.70;99.90;;;;;;10450711;28;19968;-69
2020/12/31 19:26:19;;;;;;;;;;;4.70;99.90;;;;;;10450557;28;19925;-69
2020/12/31 19:31:21;;;;;;;;;;;4.60;99.90;;;;;;10450182;28;20135;-68
2020/12/31 19:36:22;;;;;;;;;;;4.50;99.90;;;;;;10450503;28;20276;-69
2020/12/31 19:41:24;;;;;;;;;;;4.50;99.90;;;;;;10450270;28;20249;-68
2020/12/31 19:46:25;;;;;;;;;;;4.60;99.90;;;;;;10449611;28;19925;-68
2020/12/31 19:51:37;;;;;;;;;;;4.60;99.90;;;;;;10449591;28;19963;-68
2020/12/31 19:56:44;;;;;;;;;;;4.60;99.90;;;;;;10449069;28;20369;-68
2020/12/31 20:01:45;;;;;;;;;;;4.50;99.90;;;;;;10448993;28;20498;-68
2020/12/31 20:06:47;;;;;;;;;;;4.50;99.90;;;;;;10448867;28;20344;-68
2020/12/31 20:11:48;;;;;;;;;;;4.50;99.90;;;;;;10448807;28;19929;-68
2020/12/31 20:16:50;;;;;;;;;;;4.40;99.90;;;;;;10448623;28;19983;-68
2020/12/31 20:21:55;;;;;;;;;;;4.40;99.90;;;;;;10448646;28;19960;-68
2020/12/31 20:26:57;;;;;;;;;;;4.50;99.90;;;;;;10448060;28;19974;-68
2020/12/31 20:31:59;;;;;;;;;;;4.40;99.90;;;;;;10448324;28;19932;-68
2020/12/31 20:37:05;;;;;;;;;;;4.50;99.90;;;;;;10447537;28;19925;-68
2020/12/31 20:42:07;;;;;;;;;;;4.50;99.90;;;;;;10447745;28;19964;-68
2020/12/31 20:47:08;;;;;;;;;;;4.60;99.90;;;;;;10447617;28;19975;-68
2020/12/31 20:52:11;;;;;;;;;;;4.70;99.90;;;;;;10447486;28;19924;-68
2020/12/31 20:57:12;;;;;;;;;;;4.60;99.90;;;;;;10447251;28;19925;-68
2020/12/31 21:02:14;;;;;;;;;;;4.60;99.90;;;;;;10447256;28;19971;-68
2020/12/31 21:07:15;;;;;;;;;;;4.40;99.90;;;;;;10446693;28;19926;-68
2020/12/31 21:12:16;;;;;;;;;;;4.20;99.90;;;;;;10447326;28;19924;-68
2020/12/31 21:17:18;;;;;;;;;;;4.10;99.90;;;;;;10447239;28;20020;-68
2020/12/31 21:22:19;;;;;;;;;;;4.00;99.90;;;;;;10446610;28;19968;-68
2020/12/31 21:27:20;;;;;;;;;;;4.10;99.90;;;;;;10445472;28;19994;-68
2020/12/31 21:32:22;;;;;;;;;;;4.10;99.90;;;;;;10445349;28;20381;-68
2020/12/31 21:37:25;;;;;;;;;;;4.10;99.90;;;;;;10448510;28;19925;-68
2020/12/31 21:42:27;;;;;;;;;;;4.00;99.90;;;;;;10454739;28;19925;-68
2020/12/31 21:47:28;;;;;;;;;;;4.00;99.90;;;;;;10454543;28;19956;-68
2020/12/31 21:52:31;;;;;;;;;;;3.90;99.90;;;;;;10454484;28;19925;-68
2020/12/31 21:57:33;;;;;;;;;;;3.90;99.90;;;;;;10454087;28;20011;-68
2020/12/31 22:02:34;;;;;;;;;;;4.00;99.90;;;;;;10453018;28;19925;-68
2020/12/31 22:07:36;;;;;;;;;;;4.00;99.90;;;;;;10453606;28;19956;-68
2020/12/31 22:12:41;;;;;;;;;;;4.00;99.90;;;;;;10453694;28;20335;-68
2020/12/31 22:17:44;;;;;;;;;;;3.90;99.90;;;;;;10453130;28;19964;-68
2020/12/31 22:22:45;;;;;;;;;;;3.80;99.90;;;;;;10452758;28;19972;-68
2020/12/31 22:27:47;;;;;;;;;;;3.90;99.90;;;;;;10453060;28;20380;-69
2020/12/31 22:32:48;;;;;;;;;;;4.00;99.90;;;;;;10452920;28;19983;-68
2020/12/31 22:37:50;;;;;;;;;;;4.00;99.90;;;;;;10452256;28;20372;-69
2020/12/31 22:42:51;;;;;;;;;;;3.90;99.90;;;;;;10452830;28;19929;-68
2020/12/31 22:47:53;;;;;;;;;;;3.90;99.90;;;;;;10451757;28;19925;-67
2020/12/31 22:52:54;;;;;;;;;;;4.00;99.90;;;;;;10452159;28;19954;-67
2020/12/31 22:57:55;;;;;;;;;;;3.90;99.90;;;;;;10451888;28;19984;-69
2020/12/31 23:02:57;;;;;;;;;;;3.90;99.90;;;;;;10452250;28;19925;-67
2020/12/31 23:07:59;;;;;;;;;;;3.80;99.90;;;;;;10451426;28;20023;-67
2020/12/31 23:13:00;;;;;;;;;;;3.80;99.90;;;;;;10451168;28;19964;-68
2020/12/31 23:18:01;;;;;;;;;;;3.80;99.90;;;;;;10450886;28;19925;-67
2020/12/31 23:23:04;;;;;;;;;;;3.80;99.90;;;;;;10450784;28;19974;-70
2020/12/31 23:28:05;;;;;;;;;;;3.80;99.90;;;;;;10450530;28;19979;-68
2020/12/31 23:33:07;;;;;;;;;;;3.70;99.90;;;;;;10450553;28;20386;-69
2020/12/31 23:38:09;;;;;;;;;;;3.80;99.90;;;;;;10450212;28;19931;-69
2020/12/31 23:43:12;;;;;;;;;;;3.90;99.90;;;;;;10448967;28;20392;-69
2020/12/31 23:48:14;;;;;;;;;;;3.90;99.90;;;;;;10449747;28;19928;-69
2020/12/31 23:53:15;;;;;;;;;;;3.90;99.90;;;;;;10449551;28;19929;-69
2020/12/31 23:58:17;;;;;;;;;;;3.90;99.90;;;;;;10449712;28;20381;-69
